Tiempo atmosférico en la estación meteorológica de La Vall de Bianya, Girona (440 m.)



Fecha
DESCASC
Temp. máxima en grados centígrados (hora)
DESCASC
Temp. mínima en grados centígrados (hora)
DESCASC
Temp. media en grados centígrados
DESCASC
Racha de viento máxima en m/sg (hora)
DESCASC
Velocidad máxima media en intervalos de 10 minutos(hora)
DESCASC
Precipitaciones diarias en mm
DESCASC
Precipitaciones de 00:00 a 06:00 en mm
DESCASC
Precipitaciones de 06:00 a 12:00 en mm
DESCASC
Precipitaciones de 12:00 a 18:00 en mm
DESCASC
Precipitaciones de 18:00 a 24:00 en mm
DESCASC
15-07-2018 33.6 (16:30) 16.5 (06:40) 25 6.11 (18:10) 3.06 (18:00) 0 0 0 0 0
14-07-2018 33.4 (16:10) 17 (07:00) 25.2 7.5 (19:40) 3.33 (17:40) 0 0 0 0 0
13-07-2018 31.4 (15:10) 13.9 (06:40) 22.6 7.22 (17:00) 3.61 (16:10) 0 0 0 0 0
12-07-2018 29.5 (14:40) 15.1 (00:00) 22.3 8.06 (16:10) 4.17 (16:10) 1.2 1.2 0 0 0
11-07-2018 29.4 (15:10) 17 (00:00) 23.2 9.72 (22:40) 4.72 (22:30) 9 0.6 0 0 8.4
10-07-2018 31.1 (14:50) 14.8 (00:00) 23 8.06 (19:20) 3.61 (18:20) 0 0 0 0 0
09-07-2018 31.3 (14:20) 15.2 (00:00) 23.2 7.5 (16:20) 3.33 (16:30) 0.2 0 0 0 0.2
08-07-2018 33 (16:40) 14.8 (07:00) 23.9 10.28 (17:10) 4.44 (17:10) 0.6 0 0 0.4 0.2
07-07-2018 30.7 (13:50) 15.5 (00:00) 23.1 6.67 (15:40) 3.33 (15:40) 14.8 0 0 10.4 4.4
06-07-2018 27.7 (17:00) 17.3 (00:00) 22.5 5.83 (12:50) 3.06 (13:10) 1.2 1.2 0 0 0
05-07-2018 27.3 (12:30) 15.1 (06:30) 21.2 7.5 (13:10) 4.17 (13:10) 2 0 0 0 2
04-07-2018 32.5 (15:20) 15 (06:50) 23.8 8.61 (15:40) 3.61 (16:30) 0 0 0 0 0
03-07-2018 32.3 (14:20) 17 (06:30) 24.6 8.06 (20:10) 3.33 (19:20) 0 0 0 0 0
02-07-2018 30.3 (16:10) 15.1 (06:20) 22.7 8.89 (17:50) 4.72 (17:50) 0 0 0 0 0
01-07-2018 31.1 (16:00) 13.9 (00:00) 22.5 8.06 (16:50) 4.72 (17:50) 0 0 0 0 0
30-06-2018 31.2 (15:50) 17 (07:00) 24.1 5.83 (14:20) 2.5 (12:40) 0 0 0 0 0
29-06-2018 28.8 (13:40) 15.4 (00:00) 22.1 7.78 (15:50) 3.61 (15:30) 0 0 0 0 0
28-06-2018 28.5 (12:30) 17.8 (00:00) 23.1 6.39 (12:50) 3.61 (12:50) 23.2 0 0 23 0.2
27-06-2018 32.3 (15:30) 13.5 (00:00) 22.9 7.5 (16:50) 3.89 (16:40) 0 0 0 0 0
26-06-2018 28.8 (14:10) 14 (00:00) 21.4 6.94 (17:10) 3.89 (15:20) 0 0 0 0 0
25-06-2018 28.9 (14:20) 13.1 (00:00) 21 7.22 (16:10) 3.89 (16:10) 0 0 0 0 0
24-06-2018 29.4 (14:50) 13.7 (00:00) 21.5 6.67 (16:10) 3.61 (16:20) 0 0 0 0 0
23-06-2018 28.4 (15:10) 16 (00:00) 22.2 6.94 (14:00) 4.17 (15:30) 0 0 0 0 0
22-06-2018 30.4 (13:30) 16.1 (06:20) 23.3 8.61 (15:00) 3.89 (15:00) 0 0 0 0 0
21-06-2018 31.8 (14:10) 13.9 (00:00) 22.8 6.94 (15:10) 2.78 (15:20) 1.2 0 0 1.2 0
20-06-2018 31.5 (16:40) 13.1 (00:00) 22.3 8.89 (17:40) 3.89 (17:10) 0 0 0 0 0
19-06-2018 29.5 (14:50) 13.5 (00:00) 21.5 6.11 (16:20) 3.06 (16:40) 0 0 0 0 0
18-06-2018 29.9 (16:40) 13.1 (00:00) 21.5 5.83 (17:20) 2.78 (17:20) 0 0 0 0 0
17-06-2018 25.7 (14:30) 12.3 (00:00) 19 5.83 (13:10) 3.06 (14:00) 0 0 0 0 0

Gráficas

Temp. máximas Temp. mínimas Temp. medias Precipitaciones Rachas de viento máximas Velocidades máximas media en intervalos de 10 minutos

Datos horarios

Fecha y hora oficial Temperatura (ºC) Velocidad del viento (km/h) Dirección del viento Racha (km/h) Dirección de racha Precipitación (mm) Presión (hPa) Tendencia (hPa) Humedad (%)
2018-07-16 23:00:00 19.5 3 Oeste 9 Norte 0 -- -- 91
2018-07-16 22:00:00 20.6 3 Sudoeste 9 Oeste 0 -- -- 85
2018-07-16 21:00:00 22.5 2 Sur 17 Este 0 -- -- 80
2018-07-16 20:00:00 24.6 4 Sudeste 19 Este 0 -- -- 70
2018-07-16 19:00:00 26.9 2 Sudoeste 5 Sudoeste 0 -- -- 64
2018-07-16 18:00:00 25.1 2 Sur 9 Noroeste 0 -- -- 72
2018-07-16 17:00:00 27 4 Noroeste 9 Norte 0 -- -- 58
2018-07-16 16:00:00 24.9 4 Oeste 10 Sudoeste 0 -- -- 67
2018-07-16 15:00:00 22.1 0 Calma 10 Oeste 0 -- -- 67
2018-07-16 14:00:00 18.9 6 Oeste 9 Sudoeste 1.8 -- -- 84
2018-07-16 13:00:00 17 4 Sur 32 Sudeste 5.6 -- -- 89
2018-07-16 12:00:00 19.4 4 Nordeste 9 Nordeste 1.2 -- -- 96
2018-07-16 11:00:00 19.6 3 Oeste 15 Oeste 2.6 -- -- 95
2018-07-16 10:00:00 20.3 2 Norte 11 Sudoeste 0 -- -- 92
2018-07-16 09:00:00 20.7 2 Oeste 5 Este 0 -- -- 89
2018-07-16 08:00:00 19.2 4 Oeste 9 Sudoeste 0 -- -- 98
2018-07-16 07:00:00 18.6 3 Nordeste 8 Oeste 0 -- -- 96
2018-07-16 06:00:00 18.7 5 Sudoeste 11 Sudoeste 0 -- -- 97
2018-07-16 05:00:00 18.5 4 Oeste 6 Sudoeste 0 -- -- 96
2018-07-16 04:00:00 18.9 3 Oeste 8 Oeste 0 -- -- 95
2018-07-16 03:00:00 19.3 0 Calma 5 Oeste 0 -- -- 94
2018-07-16 02:00:00 20 2 Sudeste 9 Oeste 0 -- -- 93
2018-07-16 01:00:00 20.5 0 Calma 4 Norte 0 -- -- 92
2018-07-16 00:00:00 21.6 0 Calma 5 Noroeste 0 -- -- 89
2018-07-15 23:00:00 22.9 2 Sudeste 5 Sudoeste 0 -- -- 84
2018-07-15 22:00:00 24.4 2 Oeste 9 Oeste 0 -- -- 78
2018-07-15 21:00:00 26.2 0 Calma 10 Este 0 -- -- 70
2018-07-15 20:00:00 29 3 Este 20 Este 0 -- -- 59
2018-07-15 19:00:00 31.5 8 Nordeste 22 Este 0 -- -- 51
2018-07-15 18:00:00 32.3 11 Este 22 Este 0 -- -- 46
2018-07-15 17:00:00 33.5 6 Este 16 Nordeste 0 -- -- 40
2018-07-15 16:00:00 33.5 6 Este 15 Nordeste 0 -- -- 38
2018-07-15 15:00:00 32.8 5 Nordeste 15 Este 0 -- -- 41
2018-07-15 14:00:00 31.5 6 Nordeste 12 Nordeste 0 -- -- 45
2018-07-15 13:00:00 30.5 4 Oeste 10 Este 0 -- -- 48
2018-07-15 12:00:00 29.1 4 Noroeste 9 Sudoeste 0 -- -- 48
2018-07-15 11:00:00 27.6 2 Oeste 6 Sudoeste 0 -- -- 55
2018-07-15 10:00:00 24.1 2 Norte 6 Oeste 0 -- -- 65
2018-07-15 09:00:00 20.6 5 Oeste 8 Noroeste 0 -- -- 78
2018-07-15 08:00:00 18 0 Calma 4 Nordeste 0 -- -- 92
2018-07-15 07:00:00 16.6 0 Calma 6 Oeste 0 -- -- 95
2018-07-15 06:00:00 16.8 0 Calma 6 Oeste 0 -- -- 94
2018-07-15 05:00:00 17 3 Sudeste 9 Noroeste 0 -- -- 94
2018-07-15 04:00:00 17 0 Calma 5 Oeste 0 -- -- 94
2018-07-15 03:00:00 17.4 0 Calma 4 Noroeste 0 -- -- 93
2018-07-15 02:00:00 18 2 Sudoeste 5 Noroeste 0 -- -- 91
2018-07-15 01:00:00 18.7 0 Calma 6 Oeste 0 -- -- 88
2018-07-15 00:00:00 19.8 0 Calma 5 Sudoeste 0 -- -- 84
2018-07-14 23:00:00 21.1 0 Calma 6 Oeste 0 -- -- 79
2018-07-14 22:00:00 23.4 5 Sudoeste 10 Sudoeste 0 -- -- 68
2018-07-14 21:00:00 26.4 4 Oeste 14 Nordeste 0 -- -- 59
2018-07-14 20:00:00 29.7 8 Este 27 Nordeste 0 -- -- 43
2018-07-14 19:00:00 31.3 3 Sudeste 17 Este 0 -- -- 40
2018-07-14 18:00:00 31.6 11 Nordeste 22 Este 0 -- -- 40
2018-07-14 17:00:00 33 5 Nordeste 17 Este 0 -- -- 36
2018-07-14 16:00:00 33.2 4 Sudoeste 12 Este 0 -- -- 34
2018-07-14 15:00:00 32.5 7 Nordeste 19 Nordeste 0 -- -- 41
2018-07-14 14:00:00 31.7 4 Este 12 Este 0 -- -- 41
2018-07-14 13:00:00 30.9 4 Norte 11 Nordeste 0 -- -- 43
2018-07-14 12:00:00 29.6 2 Sudeste 8 Sudoeste 0 -- -- 48
2018-07-14 11:00:00 26.8 2 Sudoeste 6 Sudoeste 0 -- -- 62
2018-07-14 10:00:00 23.2 3 Sudoeste 7 Oeste 0 -- -- 76
2018-07-14 09:00:00 20.5 2 Noroeste 5 Noroeste 0 -- -- 86
2018-07-14 08:00:00 17.9 3 Oeste 5 Noroeste 0 -- -- 97
2018-07-14 07:00:00 17 0 Calma 4 Noroeste 0 -- -- 97
2018-07-14 06:00:00 17.5 0 Calma 4 Sudoeste 0 -- -- 96
2018-07-14 05:00:00 17.9 0 Calma 5 Oeste 0 -- -- 95
2018-07-14 04:00:00 18.4 0 Calma 6 Sudoeste 0 -- -- 95
2018-07-14 03:00:00 18.7 3 Sudoeste 5 Sudoeste 0 -- -- 94
2018-07-14 02:00:00 18.9 0 Calma 3 Oeste 0 -- -- 94
2018-07-14 01:00:00 19.5 0 Calma 4 Sudoeste 0 -- -- 92
2018-07-14 00:00:00 20.8 3 Sudoeste 6 Oeste 0 -- -- 86
2018-07-13 23:00:00 21.8 2 Nordeste 8 Oeste 0 -- -- 82
2018-07-13 22:00:00 22.6 4 Sudoeste 10 Oeste 0 -- -- 73
2018-07-13 21:00:00 24 2 Sur 7 Sudeste 0 -- -- 67
2018-07-13 20:00:00 26 4 Sur 10 Nordeste 0 -- -- 61
2018-07-13 19:00:00 28.1 4 Este 13 Nordeste 0 -- -- 51
2018-07-13 18:00:00 28 5 Este 24 Nordeste 0 -- -- 51
2018-07-13 17:00:00 28.2 9 Este 26 Nordeste 0 -- -- 49
2018-07-13 16:00:00 29.4 7 Este 15 Nordeste 0 -- -- 49
2018-07-13 15:00:00 31.2 8 Nordeste 17 Nordeste 0 -- -- 44
2018-07-13 14:00:00 30.6 4 Nordeste 16 Este 0 -- -- 45
2018-07-13 13:00:00 29.8 5 Nordeste 10 Nordeste 0 -- -- 48
2018-07-13 12:00:00 28.4 4 Noroeste 9 Norte 0 -- -- 48
2018-07-13 11:00:00 25.6 2 Sudoeste 6 Sudoeste 0 -- -- 61
2018-07-13 10:00:00 21.8 2 Nordeste 7 Oeste 0 -- -- 72
2018-07-13 09:00:00 18.3 3 Oeste 5 Oeste 0 -- -- 86
2018-07-13 08:00:00 15.7 0 Calma 7 Oeste 0 -- -- 97
2018-07-13 07:00:00 13.9 0 Calma 4 Noroeste 0 -- -- 98
2018-07-13 06:00:00 14.1 0 Calma 4 Sudoeste 0 -- -- 98
2018-07-13 05:00:00 14.5 0 Calma 5 Oeste 0 -- -- 97
2018-07-13 04:00:00 15 0 Calma 5 Noroeste 0 -- -- 97
2018-07-13 03:00:00 15.4 0 Calma 5 Oeste 0 -- -- 96
2018-07-13 02:00:00 16 0 Calma 6 Oeste 0 -- -- 95
2018-07-13 01:00:00 16.6 0 Calma 4 Oeste 0 -- -- 94
2018-07-13 00:00:00 17.3 0 Calma 4 Oeste 0 -- -- 91
2018-07-12 23:00:00 18.6 0 Calma 9 Sudoeste 0 -- -- 86
2018-07-12 22:00:00 19.6 0 Calma 7 Oeste 0 -- -- 81
2018-07-12 21:00:00 21.6 2 Sur 3 Sur 0 -- -- 77
2018-07-12 20:00:00 24.4 2 Noroeste 6 Oeste 0 -- -- 65
2018-07-12 19:00:00 23.5 3 Oeste 10 Sudeste 0 -- -- 64
2018-07-12 18:00:00 23.1 5 Sudeste 23 Este 0 -- -- 62
2018-07-12 17:00:00 24.5 7 Este 29 Este 0 -- -- 57
2018-07-12 16:00:00 28 13 Este 26 Nordeste 0 -- -- 51
2018-07-12 15:00:00 29.3 6 Nordeste 15 Nordeste 0 -- -- 48
2018-07-12 14:00:00 28.8 3 Sudeste 11 Nordeste 0 -- -- 52
2018-07-12 13:00:00 27.6 4 Nordeste 9 Este 0 -- -- 54
2018-07-12 12:00:00 26.5 4 Nordeste 8 Nordeste 0 -- -- 59
2018-07-12 11:00:00 24.2 3 Noroeste 6 Noroeste 0 -- -- 63
2018-07-12 10:00:00 20.6 2 Oeste 8 Sudoeste 0 -- -- 81
2018-07-12 09:00:00 19 4 Oeste 9 Sudoeste 0 -- -- 85
2018-07-12 08:00:00 16.2 2 Oeste 7 Nordeste 0 -- -- 98
2018-07-12 07:00:00 15.2 2 Norte 9 Sudoeste 0 -- -- 98
2018-07-12 06:00:00 15.3 0 Calma 10 Oeste 0 -- -- 97
2018-07-12 05:00:00 15.8 3 Noroeste 8 Oeste 0 -- -- 98
2018-07-12 04:00:00 16 0 Calma 5 Este 0 -- -- 97
2018-07-12 03:00:00 16.4 5 Oeste 12 Sudoeste 0 -- -- 97
2018-07-12 02:00:00 16.7 4 Nordeste 10 Nordeste 0 -- -- 97
2018-07-12 01:00:00 16.9 2 Oeste 14 Nordeste 1.2 -- -- 96
2018-07-12 00:00:00 17 5 Sudoeste 13 Sudoeste 0.2 -- -- 94
2018-07-11 23:00:00 17.7 4 Sudoeste 35 Noroeste 1 -- -- 88
2018-07-11 22:00:00 20.6 6 Oeste 11 Oeste 2.2 -- -- 94
2018-07-11 21:00:00 21.4 3 Oeste 14 Sur 5 -- -- 94
2018-07-11 20:00:00 23.2 3 Sudoeste 7 Sudoeste 0 -- -- 84
2018-07-11 19:00:00 24.1 2 Sur 13 Nordeste 0 -- -- 76
2018-07-11 18:00:00 25.7 5 Este 23 Nordeste 0 -- -- 64
2018-07-11 17:00:00 27.4 11 Este 30 Este 0 -- -- 59
2018-07-11 16:00:00 29 10 Este 21 Nordeste 0 -- -- 52
2018-07-11 15:00:00 29.2 9 Nordeste 18 Nordeste 0 -- -- 56
2018-07-11 14:00:00 28.4 8 Nordeste 17 Nordeste 0 -- -- 55
2018-07-11 13:00:00 27.8 7 Nordeste 17 Nordeste 0 -- -- 58
2018-07-11 12:00:00 26.5 5 Nordeste 15 Nordeste 0 -- -- 61
2018-07-11 11:00:00 25.9 6 Nordeste 12 Nordeste 0 -- -- 63
2018-07-11 10:00:00 23.7 0 Calma 0 Calma 0 -- -- 76
2018-07-11 09:00:00 21.3 0 Calma 0 Calma 0 -- -- 88
2018-07-11 08:00:00 19.8 0 Calma 0 Calma 0 -- -- 97
2018-07-11 07:00:00 18.9 0 Calma 0 Calma 0 -- -- 97
2018-07-11 06:00:00 18.8 0 Calma 0 Calma 0 -- -- 97
2018-07-11 05:00:00 18.7 0 Calma 0 Calma 0 -- -- 96
2018-07-11 04:00:00 19.6 0 Calma 0 Calma 0 -- -- 96
2018-07-11 03:00:00 20 0 Calma 0 Calma 0.2 -- -- 95
2018-07-11 02:00:00 20.9 0 Calma 0 Calma 0.4 -- -- 93
2018-07-11 01:00:00 21.1 0 Calma 0 Calma 0 -- -- 94
2018-07-11 00:00:00 21.6 0 Calma 0 Calma 0 -- -- 91
2018-07-10 23:00:00 21.7 0 Calma 0 Calma 0 -- -- 90
2018-07-10 22:00:00 22.2 0 Calma 2 Sudeste 0 -- -- 88
2018-07-10 21:00:00 22.9 0 Calma 10 Oeste 0 -- -- 85
2018-07-10 20:00:00 24.9 4 Sudoeste 29 Sudeste 0 -- -- 75
2018-07-10 19:00:00 27.8 10 Nordeste 26 Este 0 -- -- 58
2018-07-10 18:00:00 28.8 11 Nordeste 22 Nordeste 0 -- -- 54
2018-07-10 17:00:00 28.1 6 Este 17 Este 0 -- -- 55
2018-07-10 16:00:00 29.9 8 Nordeste 16 Nordeste 0 -- -- 45
2018-07-10 15:00:00 30.7 3 Este 15 Nordeste 0 -- -- 49
2018-07-10 14:00:00 30.4 4 Sur 12 Nordeste 0 -- -- 47
2018-07-10 13:00:00 30.2 5 Nordeste 12 Nordeste 0 -- -- 44
2018-07-10 12:00:00 28.5 4 Nordeste 9 Nordeste 0 -- -- 48
2018-07-10 11:00:00 25.8 3 Noroeste 6 Sudoeste 0 -- -- 58
2018-07-10 10:00:00 22.3 2 Oeste 5 Noroeste 0 -- -- 77
2018-07-10 09:00:00 19.1 2 Noroeste 4 Oeste 0 -- -- 87
2018-07-10 08:00:00 16.5 0 Calma 3 Oeste 0 -- -- 98
2018-07-10 07:00:00 14.8 0 Calma 3 Oeste 0 -- -- 98
2018-07-10 06:00:00 15 0 Calma 3 Noroeste 0 -- -- 98
2018-07-10 05:00:00 15.4 0 Calma 3 Noroeste 0 -- -- 98
2018-07-10 04:00:00 15.8 0 Calma 4 Oeste 0 -- -- 97
2018-07-10 03:00:00 16.3 2 Oeste 5 Oeste 0 -- -- 97
2018-07-10 02:00:00 16.8 0 Calma 5 Oeste 0 -- -- 96
2018-07-10 01:00:00 17.3 0 Calma 6 Noroeste 0 -- -- 95
2018-07-10 00:00:00 18.1 0 Calma 4 Norte 0 -- -- 94
2018-07-09 23:00:00 19.1 4 Oeste 7 Oeste 0 -- -- 91
2018-07-09 22:00:00 19.7 4 Sudoeste 13 Sudoeste 0 -- -- 90
2018-07-09 21:00:00 20.7 2 Noroeste 11 Oeste 0 -- -- 86
2018-07-09 20:00:00 21.4 3 Oeste 14 Sudoeste 0.2 -- -- 84
2018-07-09 19:00:00 22.4 9 Oeste 17 Oeste 0 -- -- 76
2018-07-09 18:00:00 22.3 0 Calma 8 Oeste 0 -- -- 87
2018-07-09 17:00:00 23 3 Sudeste 27 Sur 0 -- -- 75
2018-07-09 16:00:00 27.1 9 Oeste 24 Oeste 0 -- -- 65
2018-07-09 15:00:00 29.7 3 Nordeste 15 Nordeste 0 -- -- 50
2018-07-09 14:00:00 30.7 6 Este 14 Nordeste 0 -- -- 42
2018-07-09 13:00:00 30.2 4 Nordeste 19 Sudeste 0 -- -- 46
2018-07-09 12:00:00 28.9 3 Sudeste 9 Sudeste 0 -- -- 47
2018-07-09 11:00:00 26.3 0 Calma 7 Sudoeste 0 -- -- 62
2018-07-09 10:00:00 22.6 4 Sudoeste 7 Sudoeste 0 -- -- 75
2018-07-09 09:00:00 19.7 2 Noroeste 4 Nordeste 0 -- -- 85
2018-07-09 08:00:00 17.1 2 Oeste 6 Oeste 0 -- -- 97
2018-07-09 07:00:00 15.3 3 Oeste 5 Oeste 0 -- -- 98
2018-07-09 06:00:00 15.4 3 Oeste 8 Oeste 0 -- -- 98
2018-07-09 05:00:00 15.7 2 Oeste 5 Noroeste 0 -- -- 98
2018-07-09 04:00:00 16.2 0 Calma 5 Oeste 0 -- -- 98
2018-07-09 03:00:00 16.6 0 Calma 4 Este 0 -- -- 97
2018-07-09 02:00:00 17.2 2 Noroeste 7 Oeste 0 -- -- 96
2018-07-09 01:00:00 17.8 0 Calma 4 Oeste 0 -- -- 95
2018-07-09 00:00:00 18.6 0 Calma 6 Oeste 0 -- -- 94
2018-07-08 23:00:00 19.4 2 Sudoeste 8 Sudoeste 0 -- -- 93
2018-07-08 22:00:00 20.5 0 Calma 5 Sudoeste 0 -- -- 89
2018-07-08 21:00:00 21.9 2 Sudoeste 13 Oeste 0 -- -- 85
2018-07-08 20:00:00 22.6 2 Sudoeste 14 Sudoeste 0 -- -- 84
2018-07-08 19:00:00 23.2 4 Oeste 9 Sudoeste 0.2 -- -- 82
2018-07-08 18:00:00 23.5 2 Sur 37 Nordeste 0.4 -- -- 82
2018-07-08 17:00:00 30.7 9 Norte 28 Norte 0 -- -- 46
2018-07-08 16:00:00 32.3 4 Norte 12 Nordeste 0 -- -- 40
2018-07-08 15:00:00 32.1 3 Nordeste 10 Nordeste 0 -- -- 41
2018-07-08 14:00:00 31.3 4 Nordeste 14 Este 0 -- -- 42
2018-07-08 13:00:00 30.3 4 Noroeste 9 Noroeste 0 -- -- 47
2018-07-08 12:00:00 28.3 0 Calma 6 Nordeste 0 -- -- 57
2018-07-08 11:00:00 24.9 4 Noroeste 7 Oeste 0 -- -- 63
2018-07-08 10:00:00 20.9 0 Calma 8 Oeste 0 -- -- 86
2018-07-08 09:00:00 17.8 2 Oeste 4 Noroeste 0 -- -- 99
2018-07-08 08:00:00 15.3 0 Calma 5 Oeste 0 -- -- 100
2018-07-08 07:00:00 14.8 0 Calma 6 Oeste 0 -- -- 100
2018-07-08 06:00:00 15 0 Calma 5 Sudoeste 0 -- -- 99
2018-07-08 05:00:00 15.4 3 Oeste 5 Oeste 0 -- -- 99
2018-07-08 04:00:00 15.6 0 Calma 3 Sudoeste 0 -- -- 99
2018-07-08 03:00:00 16 2 Oeste 5 Oeste 0 -- -- 99
2018-07-08 02:00:00 16.4 3 Noroeste 6 Noroeste 0 -- -- 98
2018-07-08 01:00:00 16.9 3 Sudoeste 6 Sudoeste 0 -- -- 98
2018-07-08 00:00:00 17.8 3 Este 6 Sudeste 0.2 -- -- 97
2018-07-07 23:00:00 18.3 2 Sur 7 Nordeste 0 -- -- 96
2018-07-07 22:00:00 19.1 0 Calma 5 Sudoeste 0.2 -- -- 96
2018-07-07 21:00:00 19.5 2 Oeste 8 Sudoeste 0.4 -- -- 97
2018-07-07 20:00:00 19.7 0 Calma 13 Sudoeste 0.2 -- -- 96
2018-07-07 19:00:00 20 2 Este 22 Sudoeste 3.4 -- -- 92
2018-07-07 18:00:00 21.5 5 Oeste 16 Oeste 6.2 -- -- 91
2018-07-07 17:00:00 22.6 4 Sudeste 11 Sudoeste 3 -- -- 88
2018-07-07 16:00:00 23.3 9 Sudoeste 24 Oeste 1.2 -- -- 85
2018-07-07 15:00:00 29 5 Este 17 Este 0 -- -- 51
2018-07-07 14:00:00 30.7 6 Nordeste 16 Nordeste 0 -- -- 43
2018-07-07 13:00:00 29.1 6 Nordeste 13 Nordeste 0 -- -- 45
2018-07-07 12:00:00 27.8 3 Sudeste 9 Este 0 -- -- 47
2018-07-07 11:00:00 26.1 3 Sur 8 Nordeste 0 -- -- 57
2018-07-07 10:00:00 23.3 2 Este 5 Noroeste 0 -- -- 69
2018-07-07 09:00:00 20.1 3 Noroeste 4 Norte 0 -- -- 82
2018-07-07 08:00:00 17.1 2 Oeste 5 Oeste 0 -- -- 95
2018-07-07 07:00:00 15.6 0 Calma 4 Norte 0 -- -- 97
2018-07-07 06:00:00 15.8 0 Calma 4 Norte 0 -- -- 95
2018-07-07 05:00:00 16.4 3 Sudoeste 5 Oeste 0 -- -- 94
2018-07-07 04:00:00 17 3 Oeste 5 Oeste 0 -- -- 92
2018-07-07 03:00:00 18 2 Noroeste 6 Oeste 0 -- -- 90
2018-07-07 02:00:00 18.6 0 Calma 0 Calma 0 -- -- 89
2018-07-07 01:00:00 19.5 0 Calma 0 Calma 0 -- -- 82
2018-07-07 00:00:00 20 0 Calma 0 Calma 0 -- -- 83
2018-07-06 23:00:00 20.6 0 Calma 5 Oeste 0 -- -- 79
2018-07-06 22:00:00 21.3 0 Calma 5 Sudoeste 0 -- -- 75
2018-07-06 21:00:00 23.4 0 Calma 12 Este 0 -- -- 70
2018-07-06 20:00:00 24.9 2 Sudeste 14 Este 0 -- -- 66
2018-07-06 19:00:00 26.4 6 Nordeste 17 Nordeste 0 -- -- 56
2018-07-06 18:00:00 26.7 7 Nordeste 15 Nordeste 0 -- -- 54
2018-07-06 17:00:00 27.7 2 Sudoeste 10 Sudeste 0 -- -- 52
2018-07-06 16:00:00 27.1 2 Sur 16 Este 0 -- -- 53
2018-07-06 15:00:00 25.5 10 Este 19 Nordeste 0 -- -- 54
2018-07-06 14:00:00 25.3 8 Este 20 Este 0 -- -- 57
2018-07-06 13:00:00 24.5 8 Este 21 Nordeste 0 -- -- 60
2018-07-06 12:00:00 25.2 8 Nordeste 15 Nordeste 0 -- -- 57
2018-07-06 11:00:00 23.8 6 Este 12 Nordeste 0 -- -- 61
2018-07-06 10:00:00 22.1 5 Nordeste 12 Este 0 -- -- 74
2018-07-06 09:00:00 20.8 0 Calma 5 Nordeste 0 -- -- 84
2018-07-06 08:00:00 18.2 0 Calma 3 Sudoeste 0 -- -- 98
2018-07-06 07:00:00 17.3 0 Calma 2 Sur 0 -- -- 97
2018-07-06 06:00:00 18 0 Calma 3 Sudoeste 0 -- -- 97
2018-07-06 05:00:00 18 0 Calma 3 Este 0 -- -- 97
2018-07-06 04:00:00 17.8 0 Calma 3 Sudeste 0 -- -- 96
2018-07-06 03:00:00 17.8 0 Calma 4 Sur 0 -- -- 96
2018-07-06 02:00:00 18.4 2 Norte 4 Noroeste 0.2 -- -- 95
2018-07-06 01:00:00 18.5 2 Noroeste 10 Sudeste 1 -- -- 93
2018-07-06 00:00:00 19 4 Sudeste 12 Sudeste 1 -- -- 90
2018-07-05 23:00:00 20.3 3 Noroeste 8 Sudeste 1 -- -- 89
2018-07-05 22:00:00 21.7 0 Calma 5 Este 0 -- -- 77
2018-07-05 21:00:00 22.2 0 Calma 7 Sudeste 0 -- -- 75
2018-07-05 20:00:00 23.5 3 Sudeste 8 Este 0 -- -- 68
2018-07-05 19:00:00 24.6 5 Este 17 Este 0 -- -- 57
2018-07-05 18:00:00 24.4 6 Este 14 Nordeste 0 -- -- 61
2018-07-05 17:00:00 23.6 6 Sudeste 16 Este 0 -- -- 67
2018-07-05 16:00:00 25.6 5 Sudeste 13 Sudeste 0 -- -- 60
2018-07-05 15:00:00 24.4 5 Este 22 Oeste 0 -- -- 61
2018-07-05 14:00:00 25.8 11 Nordeste 27 Nordeste 0 -- -- 54
2018-07-05 13:00:00 26.9 13 Nordeste 26 Nordeste 0 -- -- 52
2018-07-05 12:00:00 26.8 10 Este 24 Este 0 -- -- 52
2018-07-05 11:00:00 25.8 7 Este 15 Nordeste 0 -- -- 55
2018-07-05 10:00:00 23.8 7 Este 14 Nordeste 0 -- -- 58
2018-07-05 09:00:00 19.8 3 Sudoeste 5 Sudoeste 0 -- -- 80
2018-07-05 08:00:00 17.5 0 Calma 4 Norte 0 -- -- 88
2018-07-05 07:00:00 15.2 3 Oeste 5 Noroeste 0 -- -- 95
2018-07-05 06:00:00 15.3 0 Calma 3 Oeste 0 -- -- 94
2018-07-05 05:00:00 16 0 Calma 6 Oeste 0 -- -- 91
2018-07-05 04:00:00 16.7 0 Calma 5 Nordeste 0 -- -- 89
2018-07-05 03:00:00 17.6 3 Noroeste 8 Sudoeste 0 -- -- 85
2018-07-05 02:00:00 18.4 3 Oeste 6 Noroeste 0 -- -- 82
2018-07-05 01:00:00 19.5 2 Noroeste 10 Oeste 0 -- -- 77
2018-07-05 00:00:00 20.3 4 Norte 9 Nordeste 0 -- -- 73
2018-07-04 23:00:00 22.2 5 Nordeste 12 Oeste 0 -- -- 63
2018-07-04 22:00:00 25.2 8 Oeste 18 Sudeste 0 -- -- 51
2018-07-04 21:00:00 27 9 Sur 22 Sudeste 0 -- -- 43
2018-07-04 20:00:00 29.2 5 Sur 21 Sudoeste 0 -- -- 37
2018-07-04 19:00:00 30.9 6 Sudoeste 24 Oeste 0 -- -- 32
2018-07-04 18:00:00 31.7 6 Sur 22 Oeste 0 -- -- 30
2018-07-04 17:00:00 31.7 7 Noroeste 31 Este 0 -- -- 35
2018-07-04 16:00:00 32.1 10 Nordeste 31 Este 0 -- -- 36
2018-07-04 15:00:00 32.2 8 Nordeste 22 Este 0 -- -- 39
2018-07-04 14:00:00 30.7 9 Nordeste 20 Nordeste 0 -- -- 41
2018-07-04 13:00:00 30.6 8 Nordeste 15 Nordeste 0 -- -- 48
2018-07-04 12:00:00 29.3 5 Este 10 Nordeste 0 -- -- 48
2018-07-04 11:00:00 27.2 0 Calma 6 Noroeste 0 -- -- 51
2018-07-04 10:00:00 23.8 3 Sudoeste 5 Sudoeste 0 -- -- 60
2018-07-04 09:00:00 20.5 2 Noroeste 5 Oeste 0 -- -- 76
2018-07-04 08:00:00 17.1 3 Noroeste 6 Noroeste 0 -- -- 91
2018-07-04 07:00:00 15.1 0 Calma 4 Oeste 0 -- -- 95
2018-07-04 06:00:00 15.3 0 Calma 3 Noroeste 0 -- -- 94
2018-07-04 05:00:00 16.1 2 Noroeste 4 Oeste 0 -- -- 92
2018-07-04 04:00:00 16.6 0 Calma 5 Oeste 0 -- -- 90
2018-07-04 03:00:00 17.4 0 Calma 5 Sudeste 0 -- -- 87
2018-07-04 02:00:00 18 0 Calma 10 Sudoeste 0 -- -- 84
2018-07-04 01:00:00 18.7 4 Sudoeste 6 Sudoeste 0 -- -- 82
2018-07-04 00:00:00 20.2 0 Calma 7 Noroeste 0 -- -- 77
2018-07-03 23:00:00 21.6 0 Calma 9 Sudoeste 0 -- -- 69
2018-07-03 22:00:00 23.8 2 Sur 10 Sur 0 -- -- 62
2018-07-03 21:00:00 26.9 6 Sur 29 Sudoeste 0 -- -- 50
2018-07-03 20:00:00 29.3 11 Sudoeste 28 Sudoeste 0 -- -- 45
2018-07-03 19:00:00 31.3 6 Sur 17 Nordeste 0 -- -- 44
2018-07-03 18:00:00 31.6 6 Este 26 Este 0 -- -- 44
2018-07-03 17:00:00 31.6 7 Nordeste 26 Este 0 -- -- 45
2018-07-03 16:00:00 31.3 6 Nordeste 21 Nordeste 0 -- -- 49
2018-07-03 15:00:00 31.6 8 Nordeste 22 Este 0 -- -- 44
2018-07-03 14:00:00 31.7 8 Este 15 Nordeste 0 -- -- 41
2018-07-03 13:00:00 30.3 6 Nordeste 12 Nordeste 0 -- -- 48
2018-07-03 12:00:00 28.8 5 Nordeste 14 Este 0 -- -- 55
2018-07-03 11:00:00 27.9 3 Nordeste 8 Sudoeste 0 -- -- 59
2018-07-03 10:00:00 24.8 2 Oeste 7 Oeste 0 -- -- 73
2018-07-03 09:00:00 21.7 0 Calma 5 Nordeste 0 -- -- 84
2018-07-03 08:00:00 18.6 0 Calma 5 Noroeste 0 -- -- 96
2018-07-03 07:00:00 17.1 2 Noroeste 4 Oeste 0 -- -- 98
2018-07-03 06:00:00 17.3 2 Oeste 4 Noroeste 0 -- -- 97
2018-07-03 05:00:00 17.7 2 Oeste 3 Sudoeste 0 -- -- 97
2018-07-03 04:00:00 18.2 0 Calma 3 Nordeste 0 -- -- 96
2018-07-03 03:00:00 18.9 0 Calma 2 Norte 0 -- -- 94
2018-07-03 02:00:00 19.6 0 Calma 4 Oeste 0 -- -- 93
2018-07-03 01:00:00 20.4 0 Calma 5 Oeste 0 -- -- 91
2018-07-03 00:00:00 21.4 0 Calma 4 Nordeste 0 -- -- 88
2018-07-02 23:00:00 22.8 2 Oeste 6 Norte 0 -- -- 82
2018-07-02 22:00:00 23.5 0 Calma 5 Este 0 -- -- 79
2018-07-02 21:00:00 24.5 3 Este 15 Nordeste 0 -- -- 75
2018-07-02 20:00:00 25.2 4 Este 22 Este 0 -- -- 70
2018-07-02 19:00:00 26 9 Nordeste 24 Este 0 -- -- 67
2018-07-02 18:00:00 27.2 12 Nordeste 32 Nordeste 0 -- -- 64
2018-07-02 17:00:00 28.9 13 Este 25 Este 0 -- -- 59
2018-07-02 16:00:00 30 12 Nordeste 22 Este 0 -- -- 55
2018-07-02 15:00:00 29.2 8 Nordeste 17 Este 0 -- -- 56
2018-07-02 14:00:00 28.4 7 Este 15 Nordeste 0 -- -- 57
2018-07-02 13:00:00 28.5 9 Este 18 Este 0 -- -- 56
2018-07-02 12:00:00 26.7 11 Nordeste 18 Nordeste 0 -- -- 61
2018-07-02 11:00:00 26 5 Nordeste 14 Nordeste 0 -- -- 63
2018-07-02 10:00:00 23.5 3 Nordeste 8 Oeste 0 -- -- 69
2018-07-02 09:00:00 20.3 4 Oeste 7 Oeste 0 -- -- 84
2018-07-02 08:00:00 17 3 Noroeste 5 Oeste 0 -- -- 94
2018-07-02 07:00:00 15.2 0 Calma 0 Calma 0 -- -- 97
2018-07-02 06:00:00 15.3 0 Calma 5 Oeste 0 -- -- 96
2018-07-02 05:00:00 15.6 0 Calma 4 Noroeste 0 -- -- 95
2018-07-02 04:00:00 16 0 Calma 4 Noroeste 0 -- -- 95
2018-07-02 03:00:00 16.5 0 Calma 5 Oeste 0 -- -- 93
2018-07-02 02:00:00 17.1 3 Oeste 7 Oeste 0 -- -- 92
2018-07-02 01:00:00 17.5 0 Calma 3 Este 0 -- -- 90
2018-07-02 00:00:00 18.3 0 Calma 4 Norte 0 -- -- 87
2018-07-01 23:00:00 19.7 2 Noroeste 5 Noroeste 0 -- -- 82
2018-07-01 22:00:00 21.1 0 Calma 4 Oeste 0 -- -- 74
2018-07-01 21:00:00 23.4 0 Calma 15 Este 0 -- -- 65
2018-07-01 20:00:00 25.1 6 Este 19 Nordeste 0 -- -- 55
2018-07-01 19:00:00 27.2 11 Este 22 Nordeste 0 -- -- 50
2018-07-01 18:00:00 28.8 12 Nordeste 29 Este 0 -- -- 44
2018-07-01 17:00:00 30.1 14 Este 29 Nordeste 0 -- -- 46
2018-07-01 16:00:00 31.1 7 Nordeste 18 Este 0 -- -- 40
2018-07-01 15:00:00 30.2 7 Nordeste 17 Este 0 -- -- 38
2018-07-01 14:00:00 29.7 6 Nordeste 14 Nordeste 0 -- -- 38
2018-07-01 13:00:00 28.5 8 Nordeste 14 Nordeste 0 -- -- 44
2018-07-01 12:00:00 27.3 4 Nordeste 15 Nordeste 0 -- -- 45
2018-07-01 11:00:00 25.8 7 Este 15 Nordeste 0 -- -- 51
2018-07-01 10:00:00 23.3 4 Nordeste 9 Este 0 -- -- 59
2018-07-01 09:00:00 19.1 4 Oeste 7 Nordeste 0 -- -- 77
2018-07-01 08:00:00 15.9 3 Sudoeste 5 Sudoeste 0 -- -- 92
2018-07-01 07:00:00 14.1 3 Nordeste 8 Oeste 0 -- -- 96
2018-07-01 06:00:00 14 0 Calma 0 Calma 0 -- -- 96
2018-07-01 05:00:00 14.5 0 Calma 0 Calma 0 -- -- 94
2018-07-01 04:00:00 15 0 Calma 2 Oeste 0 -- -- 93
2018-07-01 03:00:00 15.6 0 Calma 0 Calma 0 -- -- 92
2018-07-01 02:00:00 16.2 0 Calma 0 Calma 0 -- -- 90
2018-07-01 01:00:00 16.9 0 Calma 0 Calma 0 -- -- 88
2018-07-01 00:00:00 18.1 0 Calma 0 Calma 0 -- -- 84
2018-06-30 23:00:00 19.3 0 Calma 0 Calma 0 -- -- 77
2018-06-30 22:00:00 21.7 0 Calma 5 Nordeste 0 -- -- 69
2018-06-30 21:00:00 25.3 0 Calma 6 Sudeste 0 -- -- 55
2018-06-30 20:00:00 27.3 4 Sudeste 11 Sudeste 0 -- -- 41
2018-06-30 19:00:00 28.6 5 Sudeste 17 Sur 0 -- -- 39
2018-06-30 18:00:00 29.9 5 Sudeste 15 Sudeste 0 -- -- 40
2018-06-30 17:00:00 30.8 8 Sudeste 18 Este 0 -- -- 37
2018-06-30 16:00:00 31 5 Sudeste 18 Nordeste 0 -- -- 37
2018-06-30 15:00:00 30.9 8 Este 21 Este 0 -- -- 37
2018-06-30 14:00:00 30.5 8 Este 19 Sudeste 0 -- -- 40
2018-06-30 13:00:00 29.1 8 Nordeste 18 Nordeste 0 -- -- 54
2018-06-30 12:00:00 27.9 5 Este 15 Este 0 -- -- 60
2018-06-30 11:00:00 26.2 6 Nordeste 14 Este 0 -- -- 64
2018-06-30 10:00:00 24.1 0 Calma 0 Calma 0 -- -- 73
2018-06-30 09:00:00 20.9 0 Calma 0 Calma 0 -- -- 90
2018-06-30 08:00:00 18.5 0 Calma -- -- 0 -- -- 97
2018-06-30 07:00:00 17 0 Calma -- -- 0 -- -- 98
2018-06-30 06:00:00 17.3 0 Calma 0 Calma 0 -- -- 97
2018-06-30 05:00:00 17.4 0 Calma 4 Sudoeste 0 -- -- 97
2018-06-30 04:00:00 17.6 2 Norte 4 Norte 0 -- -- 97
2018-06-30 03:00:00 17.7 0 Calma -- -- 0 -- -- 96
2018-06-30 02:00:00 18.1 0 Calma 4 Nordeste 0 -- -- 95
2018-06-30 01:00:00 18.6 0 Calma 6 Oeste 0 -- -- 92
2018-06-30 00:00:00 19.4 0 Calma 4 Norte 0 -- -- 91
2018-06-29 23:00:00 20.4 0 Calma 4 Este 0 -- -- 83
2018-06-29 22:00:00 21.7 0 Calma 11 Nordeste 0 -- -- 79
2018-06-29 21:00:00 23.8 5 Este 14 Este 0 -- -- 72
2018-06-29 20:00:00 25 7 Sudeste 15 Este 0 -- -- 69
2018-06-29 19:00:00 25.8 10 Este 21 Nordeste 0 -- -- 67
2018-06-29 18:00:00 26.7 7 Nordeste 20 Nordeste 0 -- -- 62
2018-06-29 17:00:00 28.3 10 Nordeste 26 Nordeste 0 -- -- 55
2018-06-29 16:00:00 28 12 Nordeste 28 Nordeste 0 -- -- 58
2018-06-29 15:00:00 27.3 10 Nordeste 22 Nordeste 0 -- -- 53
2018-06-29 14:00:00 28.7 7 Nordeste 18 Este 0 -- -- 51
2018-06-29 13:00:00 28.5 6 Nordeste 15 Nordeste 0 -- -- 49
2018-06-29 12:00:00 27.3 3 Nordeste 8 Nordeste 0 -- -- 50
2018-06-29 11:00:00 25 5 Nordeste 8 Este 0 -- -- 58
2018-06-29 10:00:00 21.5 2 Noroeste 8 Oeste 0 -- -- 80
2018-06-29 09:00:00 18.4 0 Calma 5 Norte 0 -- -- 98
2018-06-29 08:00:00 15.8 2 Noroeste 8 Oeste 0 -- -- 100
2018-06-29 07:00:00 15.6 0 Calma 4 Sudoeste 0 -- -- 99
2018-06-29 06:00:00 15.7 0 Calma 7 Sudoeste 0 -- -- 99
2018-06-29 05:00:00 15.9 4 Sudoeste 6 Sudoeste 0 -- -- 99
2018-06-29 04:00:00 15.9 0 Calma 4 Oeste 0 -- -- 98
2018-06-29 03:00:00 16.4 0 Calma 4 Sur 0 -- -- 98
2018-06-29 02:00:00 17 0 Calma 8 Sudoeste 0 -- -- 97
2018-06-29 01:00:00 17.5 0 Calma 8 Oeste 0 -- -- 97
2018-06-29 00:00:00 17.8 0 Calma 12 Sudoeste 0 -- -- 96
2018-06-28 23:00:00 18.1 5 Sudoeste 11 Sudoeste 0 -- -- 97
2018-06-28 22:00:00 18.6 0 Calma 6 Sudoeste 0 -- -- 96
2018-06-28 21:00:00 19 3 Sudoeste 13 Oeste 0 -- -- 96
2018-06-28 20:00:00 19.1 0 Calma 8 Nordeste 0 -- -- 96
2018-06-28 19:00:00 19.2 2 Sudeste 9 Sudoeste 0.2 -- -- 94
2018-06-28 18:00:00 19.4 3 Sudoeste 18 Oeste 2.2 -- -- 92
2018-06-28 17:00:00 21 7 Oeste 23 Este 20.8 -- -- 90
2018-06-28 16:00:00 24.6 3 Este 15 Nordeste 0 -- -- 69
2018-06-28 15:00:00 26.3 9 Nordeste 21 Nordeste 0 -- -- 59
2018-06-28 14:00:00 28.4 8 Nordeste 23 Nordeste 0 -- -- 54
2018-06-28 13:00:00 28.3 11 Nordeste 23 Nordeste 0 -- -- 53
2018-06-28 12:00:00 27.6 8 Nordeste 18 Nordeste 0 -- -- 56
2018-06-28 11:00:00 26.6 6 Este 13 Sudeste 0 -- -- 58
2018-06-28 10:00:00 25.7 3 Este 8 Sudeste 0 -- -- 61
2018-06-28 09:00:00 22.4 0 Calma 4 Oeste 0 -- -- 71
2018-06-28 08:00:00 19.8 0 Calma 6 Oeste 0 -- -- 85
2018-06-28 07:00:00 18.7 2 Oeste 4 Oeste 0 -- -- 88
2018-06-28 06:00:00 18.3 0 Calma 7 Oeste 0 -- -- 89
2018-06-28 05:00:00 18.3 0 Calma 5 Oeste 0 -- -- 89
2018-06-28 04:00:00 18.3 0 Calma 7 Oeste 0 -- -- 88
2018-06-28 03:00:00 18.5 3 Nordeste 8 Oeste 0 -- -- 87
2018-06-28 02:00:00 19.1 0 Calma 5 Oeste 0 -- -- 85
2018-06-28 01:00:00 19.7 0 Calma 4 Noroeste 0 -- -- 83
2018-06-28 00:00:00 20.6 0 Calma 3 Oeste 0 -- -- 80
2018-06-27 23:00:00 22.1 0 Calma 4 Este 0 -- -- 76
2018-06-27 22:00:00 23.2 0 Calma 5 Sudoeste 0 -- -- 69
2018-06-27 21:00:00 24.7 0 Calma 6 Sudoeste 0 -- -- 62
2018-06-27 20:00:00 26 0 Calma 4 Sudoeste 0 -- -- 59
2018-06-27 19:00:00 27.2 2 Sur 17 Este 0 -- -- 55
2018-06-27 18:00:00 30.2 11 Nordeste 23 Nordeste 0 -- -- 42
2018-06-27 17:00:00 31.3 12 Nordeste 27 Nordeste 0 -- -- 40
2018-06-27 16:00:00 32.2 8 Nordeste 16 Este 0 -- -- 38
2018-06-27 15:00:00 31.3 5 Nordeste 17 Este 0 -- -- 39
2018-06-27 14:00:00 30.8 6 Este 13 Este 0 -- -- 38
2018-06-27 13:00:00 30.1 5 Este 12 Norte 0 -- -- 40
2018-06-27 12:00:00 28.8 5 Nordeste 11 Nordeste 0 -- -- 39
2018-06-27 11:00:00 26.8 2 Sudeste 4 Oeste 0 -- -- 48
2018-06-27 10:00:00 23.2 0 Calma 5 Oeste 0 -- -- 67
2018-06-27 09:00:00 19.5 0 Calma 5 Oeste 0 -- -- 80
2018-06-27 08:00:00 15.9 0 Calma 4 Noroeste 0 -- -- 93
2018-06-27 07:00:00 13.7 0 Calma 3 Oeste 0 -- -- 97
2018-06-27 06:00:00 13.7 0 Calma 4 Oeste 0 -- -- 96
2018-06-27 05:00:00 14.2 2 Oeste 4 Oeste 0 -- -- 96
2018-06-27 04:00:00 14.7 0 Calma 4 Oeste 0 -- -- 94
2018-06-27 03:00:00 15.1 0 Calma 3 Oeste 0 -- -- 93
2018-06-27 02:00:00 16.1 3 Oeste 4 Oeste 0 -- -- 90
2018-06-27 01:00:00 16.8 0 Calma 0 Calma 0 -- -- 87
2018-06-27 00:00:00 18.1 0 Calma 0 Calma 0 -- -- 82
2018-06-26 23:00:00 19.8 0 Calma 0 Calma 0 -- -- 75
2018-06-26 22:00:00 21.6 0 Calma 4 Sudeste 0 -- -- 66
2018-06-26 21:00:00 23.1 2 Sudeste 13 Nordeste 0 -- -- 62
2018-06-26 20:00:00 24.8 8 Este 20 Nordeste 0 -- -- 53
2018-06-26 19:00:00 25.9 11 Nordeste 25 Este 0 -- -- 50
2018-06-26 18:00:00 27.3 10 Nordeste 25 Nordeste 0 -- -- 48
2018-06-26 17:00:00 28.1 13 Nordeste 24 Este 0 -- -- 46
2018-06-26 16:00:00 27.9 12 Este 25 Nordeste 0 -- -- 47
2018-06-26 15:00:00 28.3 13 Este 24 Nordeste 0 -- -- 49
2018-06-26 14:00:00 28.4 10 Nordeste 22 Este 0 -- -- 44
2018-06-26 13:00:00 27.6 11 Nordeste 20 Este 0 -- -- 46
2018-06-26 12:00:00 26.8 9 Nordeste 15 Nordeste 0 -- -- 49
2018-06-26 11:00:00 25.9 4 Nordeste 12 Nordeste 0 -- -- 49
2018-06-26 10:00:00 22.8 0 Calma 5 Oeste 0 -- -- 64
2018-06-26 09:00:00 20 2 Noroeste 5 Oeste 0 -- -- 73
2018-06-26 08:00:00 17 2 Noroeste 4 Nordeste 0 -- -- 85
2018-06-26 07:00:00 15.1 0 Calma 4 Sudoeste 0 -- -- 93
2018-06-26 06:00:00 14.6 0 Calma 6 Oeste 0 -- -- 95
2018-06-26 05:00:00 14 0 Calma 3 Oeste 0 -- -- 94
2018-06-26 04:00:00 14.5 0 Calma 4 Oeste 0 -- -- 93
2018-06-26 03:00:00 15.1 0 Calma 4 Oeste 0 -- -- 91
2018-06-26 02:00:00 15.8 0 Calma -- -- 0 -- -- 89
2018-06-26 01:00:00 16.9 0 Calma 2 Sudeste 0 -- -- 83
2018-06-26 00:00:00 18.4 2 Noroeste 5 Oeste 0 -- -- 79
2018-06-25 23:00:00 19.7 0 Calma 8 Sudoeste 0 -- -- 70
2018-06-25 22:00:00 21.4 4 Sudoeste 6 Oeste 0 -- -- 65
2018-06-25 21:00:00 24 3 Este 16 Este 0 -- -- 55
2018-06-25 20:00:00 25.4 8 Este 26 Nordeste 0 -- -- 51
2018-06-25 19:00:00 26.8 13 Nordeste 23 Este 0 -- -- 47
2018-06-25 18:00:00 28.7 6 Este 18 Nordeste 0 -- -- 43
2018-06-25 17:00:00 28.2 10 Este 26 Este 0 -- -- 45
2018-06-25 16:00:00 28.4 13 Este 25 Este 0 -- -- 45
2018-06-25 15:00:00 28.1 11 Nordeste 21 Este 0 -- -- 47
2018-06-25 14:00:00 28.8 8 Nordeste 20 Nordeste 0 -- -- 47
2018-06-25 13:00:00 27.8 8 Este 16 Nordeste 0 -- -- 47
2018-06-25 12:00:00 26.7 6 Nordeste 13 Este 0 -- -- 49
2018-06-25 11:00:00 24.7 3 Sur 9 Este 0 -- -- 55
2018-06-25 10:00:00 22.3 3 Noroeste 6 Oeste 0 -- -- 61
2018-06-25 09:00:00 18.7 4 Oeste 7 Oeste 0 -- -- 79
2018-06-25 08:00:00 15.7 0 Calma 4 Noroeste 0 -- -- 90
2018-06-25 07:00:00 13.3 2 Oeste 4 Oeste 0 -- -- 97
2018-06-25 06:00:00 13.3 0 Calma 3 Norte 0 -- -- 96
2018-06-25 05:00:00 13.9 2 Noroeste 5 Oeste 0 -- -- 95
2018-06-25 04:00:00 14.1 0 Calma 4 Oeste 0 -- -- 94
2018-06-25 03:00:00 14.7 0 Calma 4 Nordeste 0 -- -- 93
2018-06-25 02:00:00 15.6 3 Noroeste 4 Oeste 0 -- -- 90
2018-06-25 01:00:00 16.4 2 Noroeste 4 Noroeste 0 -- -- 87
2018-06-25 00:00:00 17 0 Calma 3 Oeste 0 -- -- 85
2018-06-24 23:00:00 18.8 2 Oeste 5 Oeste 0 -- -- 77
2018-06-24 22:00:00 21.1 0 Calma 9 Sudeste 0 -- -- 66
2018-06-24 21:00:00 23 5 Este 14 Este 0 -- -- 57
2018-06-24 20:00:00 24.9 8 Este 16 Este 0 -- -- 52
2018-06-24 19:00:00 26.1 4 Sur 17 Nordeste 0 -- -- 51
2018-06-24 18:00:00 27.3 9 Este 22 Nordeste 0 -- -- 45
2018-06-24 17:00:00 27.1 12 Nordeste 24 Nordeste 0 -- -- 45
2018-06-24 16:00:00 28.8 8 Este 18 Nordeste 0 -- -- 42
2018-06-24 15:00:00 29 4 Noroeste 13 Oeste 0 -- -- 45
2018-06-24 14:00:00 27.8 5 Sur 13 Este 0 -- -- 44
2018-06-24 13:00:00 27.7 5 Este 12 Este 0 -- -- 43
2018-06-24 12:00:00 26.5 5 Norte 12 Nordeste 0 -- -- 43
2018-06-24 11:00:00 25.5 3 Sudeste 10 Sudeste 0 -- -- 44
2018-06-24 10:00:00 23.2 3 Este 7 Este 0 -- -- 53
2018-06-24 09:00:00 19.5 0 Calma 4 Noroeste 0 -- -- 68
2018-06-24 08:00:00 16 2 Noroeste 4 Oeste 0 -- -- 84
2018-06-24 07:00:00 13.7 0 Calma 5 Oeste 0 -- -- 91
2018-06-24 06:00:00 14.7 0 Calma 4 Oeste 0 -- -- 88
2018-06-24 05:00:00 15.7 0 Calma 4 Oeste 0 -- -- 84
2018-06-24 04:00:00 15.7 2 Oeste 3 Sudoeste 0 -- -- 85
2018-06-24 03:00:00 15.2 0 Calma 4 Noroeste 0 -- -- 86
2018-06-24 02:00:00 14.5 0 Calma 4 Este 0 -- -- 85
2018-06-24 01:00:00 15.3 0 Calma 3 Noroeste 0 -- -- 85
2018-06-24 00:00:00 16 2 Nordeste 5 Norte 0 -- -- 78
2018-06-23 23:00:00 17.5 0 Calma 4 Sudoeste 0 -- -- 77
2018-06-23 22:00:00 19.5 2 Sur 5 Oeste 0 -- -- 66
2018-06-23 21:00:00 22.2 0 Calma 6 Sudeste 0 -- -- 55
2018-06-23 20:00:00 25.3 3 Este 11 Nordeste 0 -- -- 46
2018-06-23 19:00:00 24.8 3 Sudeste 13 Este 0 -- -- 46
2018-06-23 18:00:00 25.6 3 Sudeste 18 Nordeste 0 -- -- 48
2018-06-23 17:00:00 27 7 Este 23 Este 0 -- -- 42
2018-06-23 16:00:00 27.6 11 Nordeste 24 Nordeste 0 -- -- 41
2018-06-23 15:00:00 28.3 10 Nordeste 22 Este 0 -- -- 43
2018-06-23 14:00:00 27.6 11 Nordeste 25 Nordeste 0 -- -- 50
2018-06-23 13:00:00 27.3 10 Nordeste 21 Nordeste 0 -- -- 52
2018-06-23 12:00:00 26.3 8 Nordeste 19 Este 0 -- -- 59
2018-06-23 11:00:00 25.2 9 Este 18 Este 0 -- -- 62
2018-06-23 10:00:00 23.9 5 Este 10 Este 0 -- -- 69
2018-06-23 09:00:00 21.7 0 Calma 6 Este 0 -- -- 79
2018-06-23 08:00:00 20 0 Calma 5 Noroeste 0 -- -- 87
2018-06-23 07:00:00 18.6 0 Calma 4 Noroeste 0 -- -- 93
2018-06-23 06:00:00 18.4 0 Calma 4 Sudoeste 0 -- -- 93
2018-06-23 05:00:00 19.1 0 Calma 5 Nordeste 0 -- -- 90
2018-06-23 04:00:00 20 0 Calma 5 Oeste 0 -- -- 90
2018-06-23 03:00:00 20.3 0 Calma 5 Nordeste 0 -- -- 89
2018-06-23 02:00:00 21 2 Nordeste 5 Nordeste 0 -- -- 87
2018-06-23 01:00:00 21 2 Sudoeste 5 Sudoeste 0 -- -- 86
2018-06-23 00:00:00 21.4 2 Este 6 Sudoeste 0 -- -- 84
2018-06-22 23:00:00 22.5 0 Calma 4 Norte 0 -- -- 81
2018-06-22 22:00:00 23.2 2 Sudeste 3 Sudoeste 0 -- -- 77
2018-06-22 21:00:00 24 0 Calma 5 Sudoeste 0 -- -- 73
2018-06-22 20:00:00 24.8 3 Sur 9 Sur 0 -- -- 70
2018-06-22 19:00:00 25.4 2 Sudeste 13 Este 0 -- -- 68
2018-06-22 18:00:00 27.5 8 Este 18 Nordeste 0 -- -- 57
2018-06-22 17:00:00 27.9 11 Este 20 Nordeste 0 -- -- 57
2018-06-22 16:00:00 28.2 10 Este 30 Este 0 -- -- 53
2018-06-22 15:00:00 29.3 14 Nordeste 31 Nordeste 0 -- -- 50
2018-06-22 14:00:00 30.2 11 Este 22 Nordeste 0 -- -- 47
2018-06-22 13:00:00 29.9 11 Nordeste 21 Nordeste 0 -- -- 46
2018-06-22 12:00:00 29.5 6 Este 15 Nordeste 0 -- -- 48
2018-06-22 11:00:00 28.1 3 Nordeste 6 Este 0 -- -- 55
2018-06-22 10:00:00 24.3 2 Noroeste 5 Sudoeste 0 -- -- 66
2018-06-22 09:00:00 20.8 0 Calma 5 Oeste 0 -- -- 79
2018-06-22 08:00:00 17.6 2 Noroeste 5 Oeste 0 -- -- 96
2018-06-22 07:00:00 16.1 4 Oeste 6 Oeste 0 -- -- 97
2018-06-22 06:00:00 16.3 0 Calma 5 Oeste 0 -- -- 97
2018-06-22 05:00:00 16.8 0 Calma 8 Sudoeste 0 -- -- 97
2018-06-22 04:00:00 17.3 3 Sudoeste 8 Sudoeste 0 -- -- 96
2018-06-22 03:00:00 18 0 Calma 6 Norte 0 -- -- 95
2018-06-22 02:00:00 18.6 3 Oeste 6 Oeste 0 -- -- 94
2018-06-22 01:00:00 19.4 0 Calma 6 Sudoeste 0 -- -- 93
2018-06-22 00:00:00 20.2 0 Calma 5 Noroeste 0 -- -- 91
2018-06-21 23:00:00 21.3 0 Calma 6 Noroeste 0 -- -- 86
2018-06-21 22:00:00 22.6 0 Calma 3 Norte 0 -- -- 79
2018-06-21 21:00:00 24.4 0 Calma 5 Este 0 -- -- 74
2018-06-21 20:00:00 25.8 2 Sur 4 Sur 0 -- -- 73
2018-06-21 19:00:00 25.6 2 Sur 4 Sur 0 -- -- 74
2018-06-21 18:00:00 25.3 2 Sur 6 Sudoeste 0.2 -- -- 81
2018-06-21 17:00:00 24.9 5 Sudoeste 10 Sudoeste 0.6 -- -- 83
2018-06-21 16:00:00 27.6 2 Sudeste 25 Nordeste 0.4 -- -- 65
2018-06-21 15:00:00 31.4 6 Nordeste 14 Nordeste 0 -- -- 41
2018-06-21 14:00:00 31.7 7 Este 19 Este 0 -- -- 41
2018-06-21 13:00:00 30.9 6 Este 15 Nordeste 0 -- -- 41
2018-06-21 12:00:00 30.1 3 Sudeste 6 Sudeste 0 -- -- 46
2018-06-21 11:00:00 27.5 2 Noroeste 5 Noroeste 0 -- -- 52
2018-06-21 10:00:00 23.3 3 Sudoeste 7 Sudoeste 0 -- -- 67
2018-06-21 09:00:00 19.8 0 Calma 4 Noroeste 0 -- -- 77
2018-06-21 08:00:00 16.3 0 Calma 4 Noroeste 0 -- -- 91
2018-06-21 07:00:00 14.1 0 Calma 4 Noroeste 0 -- -- 97
2018-06-21 06:00:00 13.9 0 Calma 2 Sudoeste 0 -- -- 96
2018-06-21 05:00:00 14.4 0 Calma 5 Oeste 0 -- -- 95
2018-06-21 04:00:00 15 3 Oeste 5 Oeste 0 -- -- 94
2018-06-21 03:00:00 15.6 0 Calma 6 Oeste 0 -- -- 92
2018-06-21 02:00:00 16.3 0 Calma 3 Noroeste 0 -- -- 89
2018-06-21 01:00:00 17.4 3 Oeste 4 Oeste 0 -- -- 86
2018-06-21 00:00:00 18.4 0 Calma 3 Sudoeste 0 -- -- 82
2018-06-20 23:00:00 20.1 0 Calma 2 Este 0 -- -- 76
2018-06-20 22:00:00 21.9 0 Calma 6 Oeste 0 -- -- 61
2018-06-20 21:00:00 24.7 0 Calma 8 Sur 0 -- -- 57
2018-06-20 20:00:00 27.4 3 Sur 10 Este 0 -- -- 52
2018-06-20 19:00:00 29.6 4 Sudeste 16 Este 0 -- -- 42
2018-06-20 18:00:00 29.7 9 Este 32 Este 0 -- -- 45
2018-06-20 17:00:00 30.8 13 Nordeste 25 Nordeste 0 -- -- 42
2018-06-20 16:00:00 31.1 9 Este 22 Este 0 -- -- 38
2018-06-20 15:00:00 30.9 9 Nordeste 20 Sudeste 0 -- -- 40
2018-06-20 14:00:00 30.1 9 Nordeste 19 Nordeste 0 -- -- 44
2018-06-20 13:00:00 29.3 6 Nordeste 18 Este 0 -- -- 43
2018-06-20 12:00:00 28.6 5 Este 12 Este 0 -- -- 44
2018-06-20 11:00:00 26.4 3 Nordeste 8 Nordeste 0 -- -- 46
2018-06-20 10:00:00 22.5 2 Sudoeste 5 Sudoeste 0 -- -- 66
2018-06-20 09:00:00 18.8 2 Noroeste 6 Noroeste 0 -- -- 79
2018-06-20 08:00:00 15.7 2 Noroeste 5 Oeste 0 -- -- 90
2018-06-20 07:00:00 13.3 2 Oeste 5 Oeste 0 -- -- 97
2018-06-20 06:00:00 13.4 0 Calma 4 Oeste 0 -- -- 96
2018-06-20 05:00:00 13.9 0 Calma -- -- 0 -- -- 96
2018-06-20 04:00:00 14.5 0 Calma 2 Noroeste 0 -- -- 95
2018-06-20 03:00:00 15.2 0 Calma 3 Noroeste 0 -- -- 94
2018-06-20 02:00:00 16 2 Sudoeste 4 Oeste 0 -- -- 92
2018-06-20 01:00:00 16.9 0 Calma 3 Noroeste 0 -- -- 89
2018-06-20 00:00:00 18.1 0 Calma 3 Norte 0 -- -- 84
2018-06-19 23:00:00 19.6 0 Calma 4 Oeste 0 -- -- 80
2018-06-19 22:00:00 21.8 2 Sudoeste 5 Sudoeste 0 -- -- 69
2018-06-19 21:00:00 24.8 0 Calma 9 Este 0 -- -- 58
2018-06-19 20:00:00 27.7 7 Este 18 Nordeste 0 -- -- 47
2018-06-19 19:00:00 28.7 9 Nordeste 19 Este 0 -- -- 40
2018-06-19 18:00:00 29.2 8 Nordeste 19 Nordeste 0 -- -- 41
2018-06-19 17:00:00 29.2 10 Este 22 Nordeste 0 -- -- 41
2018-06-19 16:00:00 29.4 10 Nordeste 20 Este 0 -- -- 41
2018-06-19 15:00:00 29.1 8 Nordeste 17 Este 0 -- -- 39
2018-06-19 14:00:00 28.7 5 Este 15 Este 0 -- -- 41
2018-06-19 13:00:00 27.9 3 Sudeste 8 Sur 0 -- -- 47
2018-06-19 12:00:00 27 2 Sudeste 7 Oeste 0 -- -- 51
2018-06-19 11:00:00 25.2 3 Sudoeste 8 Oeste 0 -- -- 51
2018-06-19 10:00:00 22.4 0 Calma 4 Este 0 -- -- 68
2018-06-19 09:00:00 19.3 0 Calma 5 Oeste 0 -- -- 79
2018-06-19 08:00:00 15.9 0 Calma 5 Oeste 0 -- -- 93
2018-06-19 07:00:00 13.7 0 Calma 6 Oeste 0 -- -- 97
2018-06-19 06:00:00 13.7 0 Calma 3 Este 0 -- -- 97
2018-06-19 05:00:00 14.2 0 Calma 5 Sudoeste 0 -- -- 96
2018-06-19 04:00:00 14.7 0 Calma 4 Nordeste 0 -- -- 95
2018-06-19 03:00:00 15.5 0 Calma 3 Oeste 0 -- -- 93
2018-06-19 02:00:00 16.2 0 Calma 4 Este 0 -- -- 91
2018-06-19 01:00:00 17.2 0 Calma 3 Noroeste 0 -- -- 86
2018-06-19 00:00:00 18.7 0 Calma 5 Oeste 0 -- -- 79
2018-06-18 23:00:00 20.3 0 Calma 7 Sudoeste 0 -- -- 73
2018-06-18 22:00:00 22.3 2 Sudeste 10 Sudeste 0 -- -- 65
2018-06-18 21:00:00 24.1 6 Sudeste 16 Sudeste 0 -- -- 57
2018-06-18 20:00:00 26.2 5 Sudoeste 16 Nordeste 0 -- -- 53
2018-06-18 19:00:00 27.1 6 Este 18 Este 0 -- -- 47
2018-06-18 18:00:00 29.1 7 Este 21 Nordeste 0 -- -- 44
2018-06-18 17:00:00 29.8 4 Sudeste 14 Nordeste 0 -- -- 40
2018-06-18 16:00:00 28.7 6 Este 21 Nordeste 0 -- -- 40
2018-06-18 15:00:00 28.7 6 Sudeste 18 Nordeste 0 -- -- 47
2018-06-18 14:00:00 27.5 7 Nordeste 16 Nordeste 0 -- -- 55
2018-06-18 13:00:00 26.5 8 Nordeste 17 Nordeste 0 -- -- 58
2018-06-18 12:00:00 25.3 7 Este 14 Este 0 -- -- 59
2018-06-18 11:00:00 24.1 2 Sur 8 Nordeste 0 -- -- 64
2018-06-18 10:00:00 21.7 2 Nordeste 6 Norte 0 -- -- 68
2018-06-18 09:00:00 18.1 3 Oeste 5 Oeste 0 -- -- 84
2018-06-18 08:00:00 15 3 Oeste 5 Norte 0 -- -- 95
2018-06-18 07:00:00 13.2 0 Calma 6 Oeste 0 -- -- 98
2018-06-18 06:00:00 13.3 0 Calma 5 Oeste 0 -- -- 97
2018-06-18 05:00:00 13.8 2 Sudoeste 6 Nordeste 0 -- -- 96
2018-06-18 04:00:00 14.6 0 Calma 6 Norte 0 -- -- 94
2018-06-18 03:00:00 15.6 2 Oeste 9 Oeste 0 -- -- 92
2018-06-18 02:00:00 16.1 2 Sudeste 4 Nordeste 0 -- -- 91
2018-06-18 01:00:00 17.3 0 Calma 6 Nordeste 0 -- -- 86
2018-06-18 00:00:00 17.4 0 Calma 6 Nordeste 0 -- -- 84
2018-06-17 23:00:00 17.6 2 Sudoeste 3 Sudoeste 0 -- -- 84
2018-06-17 22:00:00 18.8 0 Calma 3 Sudeste 0 -- -- 76
2018-06-17 21:00:00 21.2 0 Calma 12 Este 0 -- -- 68
2018-06-17 20:00:00 22.5 7 Sudeste 15 Este 0 -- -- 60
2018-06-17 19:00:00 23 8 Este 13 Nordeste 0 -- -- 58
2018-06-17 18:00:00 23.7 8 Este 19 Este 0 -- -- 56
2018-06-17 17:00:00 24.2 8 Nordeste 18 Nordeste 0 -- -- 57
2018-06-17 16:00:00 25 6 Este 19 Norte 0 -- -- 59
2018-06-17 15:00:00 25.1 10 Nordeste 19 Norte 0 -- -- 58
2018-06-17 14:00:00 25.4 11 Nordeste 21 Nordeste 0 -- -- 56
2018-06-17 13:00:00 24.9 9 Este 20 Nordeste 0 -- -- 63
2018-06-17 12:00:00 24.1 8 Este 16 Este 0 -- -- 61
2018-06-17 11:00:00 23 5 Este 13 Sudeste 0 -- -- 62
2018-06-17 10:00:00 21 4 Este 9 Nordeste 0 -- -- 70
2018-06-17 09:00:00 17.5 0 Calma 4 Oeste 0 -- -- 85
2018-06-17 08:00:00 14.9 0 Calma 4 Noroeste 0 -- -- 95
2018-06-17 07:00:00 12.6 0 Calma 5 Noroeste 0 -- -- 98
2018-06-17 06:00:00 12.6 2 Sudoeste 4 Oeste 0 -- -- 97
2018-06-17 05:00:00 13 0 Calma 5 Norte 0 -- -- 96
2018-06-17 04:00:00 13.7 2 Noroeste 3 Oeste 0 -- -- 96
2018-06-17 03:00:00 14.2 0 Calma 3 Norte 0 -- -- 94
2018-06-17 02:00:00 15 0 Calma 4 Norte 0 -- -- 92
2018-06-17 01:00:00 16.1 0 Calma 3 Noroeste 0 -- -- 88
2018-06-17 00:00:00 17.5 0 Calma 4 Nordeste 0 -- -- 84